sensor_id;sensor_type;location;lat;lon;timestamp;P1;durP1;ratioP1;P2;durP2;ratioP2
15878;SDS011;61999;51.514;14.614;2023-05-20T00:00:59;6.73;;;6.17;;
15878;SDS011;61999;51.514;14.614;2023-05-20T00:03:27;8.40;;;6.27;;
15878;SDS011;61999;51.514;14.614;2023-05-20T00:05:56;6.83;;;6.23;;
15878;SDS011;61999;51.514;14.614;2023-05-20T00:08:25;8.47;;;6.77;;
15878;SDS011;61999;51.514;14.614;2023-05-20T00:10:53;7.37;;;6.33;;
15878;SDS011;61999;51.514;14.614;2023-05-20T00:13:21;6.97;;;6.37;;
15878;SDS011;61999;51.514;14.614;2023-05-20T00:15:50;10.07;;;7.60;;
15878;SDS011;61999;51.514;14.614;2023-05-20T00:18:19;7.63;;;6.87;;
15878;SDS011;61999;51.514;14.614;2023-05-20T00:20:47;7.37;;;6.67;;
15878;SDS011;61999;51.514;14.614;2023-05-20T00:23:15;7.43;;;6.63;;
15878;SDS011;61999;51.514;14.614;2023-05-20T00:25:45;8.20;;;7.00;;
15878;SDS011;61999;51.514;14.614;2023-05-20T00:28:13;8.43;;;7.03;;
15878;SDS011;61999;51.514;14.614;2023-05-20T00:30:41;7.50;;;6.80;;
15878;SDS011;61999;51.514;14.614;2023-05-20T00:33:09;8.57;;;7.30;;
15878;SDS011;61999;51.514;14.614;2023-05-20T00:35:37;8.10;;;7.30;;
15878;SDS011;61999;51.514;14.614;2023-05-20T00:38:06;7.83;;;7.03;;
15878;SDS011;61999;51.514;14.614;2023-05-20T00:40:34;7.57;;;6.80;;
15878;SDS011;61999;51.514;14.614;2023-05-20T00:43:03;7.87;;;7.13;;
15878;SDS011;61999;51.514;14.614;2023-05-20T00:45:31;8.40;;;6.87;;
15878;SDS011;61999;51.514;14.614;2023-05-20T00:48:00;8.00;;;7.10;;
15878;SDS011;61999;51.514;14.614;2023-05-20T00:50:29;8.27;;;7.40;;
15878;SDS011;61999;51.514;14.614;2023-05-20T00:52:58;9.07;;;7.80;;
15878;SDS011;61999;51.514;14.614;2023-05-20T00:55:27;10.27;;;7.77;;
15878;SDS011;61999;51.514;14.614;2023-05-20T00:57:55;8.23;;;7.43;;
15878;SDS011;61999;51.514;14.614;2023-05-20T01:00:25;8.07;;;7.27;;
15878;SDS011;61999;51.514;14.614;2023-05-20T01:02:53;8.57;;;7.70;;
15878;SDS011;61999;51.514;14.614;2023-05-20T01:05:22;9.13;;;7.67;;
15878;SDS011;61999;51.514;14.614;2023-05-20T01:07:50;9.57;;;8.10;;
15878;SDS011;61999;51.514;14.614;2023-05-20T01:10:19;9.33;;;8.47;;
15878;SDS011;61999;51.514;14.614;2023-05-20T01:12:51;8.77;;;7.93;;
15878;SDS011;61999;51.514;14.614;2023-05-20T01:15:27;9.17;;;8.23;;
15878;SDS011;61999;51.514;14.614;2023-05-20T01:17:59;8.43;;;7.53;;
15878;SDS011;61999;51.514;14.614;2023-05-20T01:20:31;9.20;;;8.03;;
15878;SDS011;61999;51.514;14.614;2023-05-20T01:23:02;9.37;;;8.43;;
15878;SDS011;61999;51.514;14.614;2023-05-20T01:25:30;9.03;;;8.10;;
15878;SDS011;61999;51.514;14.614;2023-05-20T01:27:59;10.03;;;9.00;;
15878;SDS011;61999;51.514;14.614;2023-05-20T01:30:28;9.73;;;8.73;;
15878;SDS011;61999;51.514;14.614;2023-05-20T01:33:06;11.53;;;8.97;;
15878;SDS011;61999;51.514;14.614;2023-05-20T01:35:38;10.87;;;9.37;;
15878;SDS011;61999;51.514;14.614;2023-05-20T01:38:10;9.30;;;8.27;;
15878;SDS011;61999;51.514;14.614;2023-05-20T01:40:40;9.10;;;8.17;;
15878;SDS011;61999;51.514;14.614;2023-05-20T01:43:09;8.70;;;7.50;;
15878;SDS011;61999;51.514;14.614;2023-05-20T01:45:40;9.20;;;8.20;;
15878;SDS011;61999;51.514;14.614;2023-05-20T01:48:08;8.50;;;7.57;;
15878;SDS011;61999;51.514;14.614;2023-05-20T01:50:37;10.07;;;9.13;;
15878;SDS011;61999;51.514;14.614;2023-05-20T01:53:06;10.27;;;8.53;;
15878;SDS011;61999;51.514;14.614;2023-05-20T01:55:36;9.13;;;8.23;;
15878;SDS011;61999;51.514;14.614;2023-05-20T01:58:04;10.40;;;8.90;;
15878;SDS011;61999;51.514;14.614;2023-05-20T02:00:32;9.50;;;8.43;;
15878;SDS011;61999;51.514;14.614;2023-05-20T02:03:01;9.43;;;7.90;;
15878;SDS011;61999;51.514;14.614;2023-05-20T02:05:29;8.87;;;7.97;;
15878;SDS011;61999;51.514;14.614;2023-05-20T02:07:57;9.40;;;8.40;;
15878;SDS011;61999;51.514;14.614;2023-05-20T02:10:25;10.30;;;9.27;;
15878;SDS011;61999;51.514;14.614;2023-05-20T02:12:55;9.83;;;8.10;;
15878;SDS011;61999;51.514;14.614;2023-05-20T02:15:24;11.27;;;10.17;;
15878;SDS011;61999;51.514;14.614;2023-05-20T02:17:52;10.57;;;8.87;;
15878;SDS011;61999;51.514;14.614;2023-05-20T02:20:23;10.53;;;8.60;;
15878;SDS011;61999;51.514;14.614;2023-05-20T02:22:51;11.03;;;9.30;;
15878;SDS011;61999;51.514;14.614;2023-05-20T02:25:20;9.80;;;8.80;;
15878;SDS011;61999;51.514;14.614;2023-05-20T02:27:48;10.60;;;9.00;;
15878;SDS011;61999;51.514;14.614;2023-05-20T02:30:18;10.97;;;9.00;;
15878;SDS011;61999;51.514;14.614;2023-05-20T02:32:46;10.13;;;9.10;;
15878;SDS011;61999;51.514;14.614;2023-05-20T02:35:15;10.63;;;9.23;;
15878;SDS011;61999;51.514;14.614;2023-05-20T02:37:44;14.87;;;10.40;;
15878;SDS011;61999;51.514;14.614;2023-05-20T02:40:13;11.37;;;9.33;;
15878;SDS011;61999;51.514;14.614;2023-05-20T02:42:42;11.53;;;10.07;;
15878;SDS011;61999;51.514;14.614;2023-05-20T02:45:10;9.60;;;8.57;;
15878;SDS011;61999;51.514;14.614;2023-05-20T02:47:40;10.97;;;9.83;;
15878;SDS011;61999;51.514;14.614;2023-05-20T02:50:08;11.87;;;10.67;;
15878;SDS011;61999;51.514;14.614;2023-05-20T02:52:37;11.43;;;10.10;;
15878;SDS011;61999;51.514;14.614;2023-05-20T02:55:07;11.33;;;10.20;;
15878;SDS011;61999;51.514;14.614;2023-05-20T02:57:36;10.43;;;8.77;;
15878;SDS011;61999;51.514;14.614;2023-05-20T03:00:05;10.97;;;9.80;;
15878;SDS011;61999;51.514;14.614;2023-05-20T03:02:36;12.60;;;10.00;;
15878;SDS011;61999;51.514;14.614;2023-05-20T03:05:07;11.53;;;9.93;;
15878;SDS011;61999;51.514;14.614;2023-05-20T03:07:36;11.00;;;9.83;;
15878;SDS011;61999;51.514;14.614;2023-05-20T03:10:04;12.00;;;10.50;;
15878;SDS011;61999;51.514;14.614;2023-05-20T03:12:34;10.20;;;9.20;;
15878;SDS011;61999;51.514;14.614;2023-05-20T03:15:02;10.83;;;9.73;;
15878;SDS011;61999;51.514;14.614;2023-05-20T03:17:31;13.07;;;11.23;;
15878;SDS011;61999;51.514;14.614;2023-05-20T03:20:00;12.43;;;10.93;;
15878;SDS011;61999;51.514;14.614;2023-05-20T03:22:30;12.93;;;10.40;;
15878;SDS011;61999;51.514;14.614;2023-05-20T03:24:58;11.03;;;9.93;;
15878;SDS011;61999;51.514;14.614;2023-05-20T03:27:27;11.50;;;9.90;;
15878;SDS011;61999;51.514;14.614;2023-05-20T03:29:56;13.00;;;10.87;;
15878;SDS011;61999;51.514;14.614;2023-05-20T03:32:24;11.87;;;10.40;;
15878;SDS011;61999;51.514;14.614;2023-05-20T03:34:52;11.90;;;10.57;;
15878;SDS011;61999;51.514;14.614;2023-05-20T03:37:23;12.30;;;11.00;;
15878;SDS011;61999;51.514;14.614;2023-05-20T03:39:53;12.13;;;10.47;;
15878;SDS011;61999;51.514;14.614;2023-05-20T03:42:21;13.90;;;12.07;;
15878;SDS011;61999;51.514;14.614;2023-05-20T03:44:49;13.33;;;11.90;;
15878;SDS011;61999;51.514;14.614;2023-05-20T03:47:17;12.77;;;11.30;;
15878;SDS011;61999;51.514;14.614;2023-05-20T03:49:45;12.33;;;11.03;;
15878;SDS011;61999;51.514;14.614;2023-05-20T03:52:14;11.53;;;10.33;;
15878;SDS011;61999;51.514;14.614;2023-05-20T03:54:42;12.53;;;10.83;;
15878;SDS011;61999;51.514;14.614;2023-05-20T03:57:11;12.07;;;10.80;;
15878;SDS011;61999;51.514;14.614;2023-05-20T03:59:40;12.83;;;10.13;;
15878;SDS011;61999;51.514;14.614;2023-05-20T04:02:08;12.50;;;10.77;;
15878;SDS011;61999;51.514;14.614;2023-05-20T04:04:36;14.83;;;12.50;;
15878;SDS011;61999;51.514;14.614;2023-05-20T04:07:04;12.30;;;10.70;;
15878;SDS011;61999;51.514;14.614;2023-05-20T04:09:33;13.80;;;12.27;;
15878;SDS011;61999;51.514;14.614;2023-05-20T04:12:01;13.40;;;11.93;;
15878;SDS011;61999;51.514;14.614;2023-05-20T04:14:30;13.20;;;11.77;;
15878;SDS011;61999;51.514;14.614;2023-05-20T04:17:01;14.90;;;12.13;;
15878;SDS011;61999;51.514;14.614;2023-05-20T04:19:31;14.70;;;11.87;;
15878;SDS011;61999;51.514;14.614;2023-05-20T04:22:00;13.50;;;11.13;;
15878;SDS011;61999;51.514;14.614;2023-05-20T04:24:28;16.50;;;13.67;;
15878;SDS011;61999;51.514;14.614;2023-05-20T04:26:56;15.10;;;13.43;;
15878;SDS011;61999;51.514;14.614;2023-05-20T04:29:24;14.70;;;12.37;;
15878;SDS011;61999;51.514;14.614;2023-05-20T04:31:54;16.80;;;13.90;;
15878;SDS011;61999;51.514;14.614;2023-05-20T04:34:23;14.80;;;13.20;;
15878;SDS011;61999;51.514;14.614;2023-05-20T04:36:52;15.60;;;14.00;;
15878;SDS011;61999;51.514;14.614;2023-05-20T04:39:20;15.50;;;13.23;;
15878;SDS011;61999;51.514;14.614;2023-05-20T04:41:48;16.90;;;14.60;;
15878;SDS011;61999;51.514;14.614;2023-05-20T04:44:17;17.63;;;13.93;;
15878;SDS011;61999;51.514;14.614;2023-05-20T04:46:45;17.80;;;14.07;;
15878;SDS011;61999;51.514;14.614;2023-05-20T04:49:15;16.57;;;13.43;;
15878;SDS011;61999;51.514;14.614;2023-05-20T04:51:43;17.77;;;14.27;;
15878;SDS011;61999;51.514;14.614;2023-05-20T04:54:15;17.87;;;14.40;;
15878;SDS011;61999;51.514;14.614;2023-05-20T04:56:45;18.20;;;14.60;;
15878;SDS011;61999;51.514;14.614;2023-05-20T04:59:14;16.67;;;14.47;;
15878;SDS011;61999;51.514;14.614;2023-05-20T05:01:42;18.07;;;14.80;;
15878;SDS011;61999;51.514;14.614;2023-05-20T05:04:10;18.77;;;15.50;;
15878;SDS011;61999;51.514;14.614;2023-05-20T05:06:40;18.23;;;15.00;;
15878;SDS011;61999;51.514;14.614;2023-05-20T05:09:08;19.57;;;14.60;;
15878;SDS011;61999;51.514;14.614;2023-05-20T05:11:36;18.30;;;14.80;;
15878;SDS011;61999;51.514;14.614;2023-05-20T05:14:04;17.47;;;15.53;;
15878;SDS011;61999;51.514;14.614;2023-05-20T05:16:32;18.73;;;13.47;;
15878;SDS011;61999;51.514;14.614;2023-05-20T05:19:01;16.63;;;13.70;;
15878;SDS011;61999;51.514;14.614;2023-05-20T05:21:29;20.87;;;14.70;;
15878;SDS011;61999;51.514;14.614;2023-05-20T05:23:59;16.97;;;14.43;;
15878;SDS011;61999;51.514;14.614;2023-05-20T05:26:27;17.90;;;15.93;;
15878;SDS011;61999;51.514;14.614;2023-05-20T05:28:56;17.03;;;14.57;;
15878;SDS011;61999;51.514;14.614;2023-05-20T05:31:24;17.63;;;14.87;;
15878;SDS011;61999;51.514;14.614;2023-05-20T05:33:52;16.53;;;14.07;;
15878;SDS011;61999;51.514;14.614;2023-05-20T05:36:22;16.27;;;14.50;;
15878;SDS011;61999;51.514;14.614;2023-05-20T05:38:51;16.13;;;14.37;;
15878;SDS011;61999;51.514;14.614;2023-05-20T05:41:20;17.27;;;15.37;;
15878;SDS011;61999;51.514;14.614;2023-05-20T05:43:48;16.90;;;14.73;;
15878;SDS011;61999;51.514;14.614;2023-05-20T05:46:16;16.90;;;13.97;;
15878;SDS011;61999;51.514;14.614;2023-05-20T05:48:45;17.97;;;15.03;;
15878;SDS011;61999;51.514;14.614;2023-05-20T05:51:15;19.27;;;14.93;;
15878;SDS011;61999;51.514;14.614;2023-05-20T05:53:44;17.87;;;14.67;;
15878;SDS011;61999;51.514;14.614;2023-05-20T05:56:12;18.13;;;14.70;;
15878;SDS011;61999;51.514;14.614;2023-05-20T05:58:41;19.03;;;15.87;;
15878;SDS011;61999;51.514;14.614;2023-05-20T06:01:10;19.10;;;15.23;;
15878;SDS011;61999;51.514;14.614;2023-05-20T06:03:38;16.67;;;14.73;;
15878;SDS011;61999;51.514;14.614;2023-05-20T06:06:07;16.67;;;13.57;;
15878;SDS011;61999;51.514;14.614;2023-05-20T06:08:35;18.17;;;14.80;;
15878;SDS011;61999;51.514;14.614;2023-05-20T06:11:03;18.97;;;15.60;;
15878;SDS011;61999;51.514;14.614;2023-05-20T06:13:31;16.47;;;14.37;;
15878;SDS011;61999;51.514;14.614;2023-05-20T06:16:01;17.20;;;14.80;;
15878;SDS011;61999;51.514;14.614;2023-05-20T06:18:29;20.83;;;14.43;;
15878;SDS011;61999;51.514;14.614;2023-05-20T06:20:58;15.97;;;13.43;;
15878;SDS011;61999;51.514;14.614;2023-05-20T06:23:26;16.53;;;13.37;;
15878;SDS011;61999;51.514;14.614;2023-05-20T06:25:56;19.00;;;14.57;;
15878;SDS011;61999;51.514;14.614;2023-05-20T06:28:25;17.03;;;14.67;;
15878;SDS011;61999;51.514;14.614;2023-05-20T06:30:54;19.77;;;15.37;;
15878;SDS011;61999;51.514;14.614;2023-05-20T06:33:24;16.10;;;13.63;;
15878;SDS011;61999;51.514;14.614;2023-05-20T06:35:55;16.77;;;14.50;;
15878;SDS011;61999;51.514;14.614;2023-05-20T06:38:26;15.23;;;13.60;;
15878;SDS011;61999;51.514;14.614;2023-05-20T06:40:55;16.80;;;13.60;;
15878;SDS011;61999;51.514;14.614;2023-05-20T06:43:23;14.73;;;13.13;;
15878;SDS011;61999;51.514;14.614;2023-05-20T06:45:51;15.63;;;13.23;;
15878;SDS011;61999;51.514;14.614;2023-05-20T06:48:20;15.97;;;13.23;;
15878;SDS011;61999;51.514;14.614;2023-05-20T06:50:49;15.30;;;13.70;;
15878;SDS011;61999;51.514;14.614;2023-05-20T06:53:17;18.27;;;13.77;;
15878;SDS011;61999;51.514;14.614;2023-05-20T06:55:46;16.53;;;13.27;;
15878;SDS011;61999;51.514;14.614;2023-05-20T06:58:14;18.73;;;14.63;;
15878;SDS011;61999;51.514;14.614;2023-05-20T07:00:42;16.47;;;13.97;;
15878;SDS011;61999;51.514;14.614;2023-05-20T07:03:11;16.13;;;13.97;;
15878;SDS011;61999;51.514;14.614;2023-05-20T07:05:39;16.67;;;14.07;;
15878;SDS011;61999;51.514;14.614;2023-05-20T07:08:08;18.90;;;15.43;;
15878;SDS011;61999;51.514;14.614;2023-05-20T07:10:37;16.40;;;14.40;;
15878;SDS011;61999;51.514;14.614;2023-05-20T07:13:05;20.47;;;14.63;;
15878;SDS011;61999;51.514;14.614;2023-05-20T07:15:33;17.77;;;14.80;;
15878;SDS011;61999;51.514;14.614;2023-05-20T07:18:01;15.47;;;13.70;;
15878;SDS011;61999;51.514;14.614;2023-05-20T07:20:30;16.87;;;13.87;;
15878;SDS011;61999;51.514;14.614;2023-05-20T07:22:58;16.83;;;13.13;;
15878;SDS011;61999;51.514;14.614;2023-05-20T07:25:30;16.40;;;13.43;;
15878;SDS011;61999;51.514;14.614;2023-05-20T07:27:58;14.87;;;13.27;;
15878;SDS011;61999;51.514;14.614;2023-05-20T07:30:27;16.30;;;13.00;;
15878;SDS011;61999;51.514;14.614;2023-05-20T07:32:55;16.50;;;13.87;;
15878;SDS011;61999;51.514;14.614;2023-05-20T07:35:23;14.93;;;13.33;;
15878;SDS011;61999;51.514;14.614;2023-05-20T07:37:51;16.60;;;13.40;;
15878;SDS011;61999;51.514;14.614;2023-05-20T07:40:19;15.80;;;13.23;;
15878;SDS011;61999;51.514;14.614;2023-05-20T07:42:49;14.70;;;13.13;;
15878;SDS011;61999;51.514;14.614;2023-05-20T07:45:17;16.23;;;13.93;;
15878;SDS011;61999;51.514;14.614;2023-05-20T07:47:46;15.20;;;13.37;;
15878;SDS011;61999;51.514;14.614;2023-05-20T07:50:14;15.07;;;13.33;;
15878;SDS011;61999;51.514;14.614;2023-05-20T07:52:42;14.87;;;13.27;;
15878;SDS011;61999;51.514;14.614;2023-05-20T07:55:20;19.03;;;13.10;;
15878;SDS011;61999;51.514;14.614;2023-05-20T07:57:49;18.07;;;14.50;;
15878;SDS011;61999;51.514;14.614;2023-05-20T08:00:18;14.63;;;13.13;;
15878;SDS011;61999;51.514;14.614;2023-05-20T08:02:46;16.50;;;14.80;;
15878;SDS011;61999;51.514;14.614;2023-05-20T08:05:14;17.73;;;14.37;;
15878;SDS011;61999;51.514;14.614;2023-05-20T08:07:43;18.40;;;16.50;;
15878;SDS011;61999;51.514;14.614;2023-05-20T08:10:11;23.27;;;17.73;;
15878;SDS011;61999;51.514;14.614;2023-05-20T08:12:39;19.97;;;16.67;;
15878;SDS011;61999;51.514;14.614;2023-05-20T08:15:09;19.00;;;16.87;;
15878;SDS011;61999;51.514;14.614;2023-05-20T08:17:38;19.00;;;15.43;;
15878;SDS011;61999;51.514;14.614;2023-05-20T08:20:06;14.50;;;12.97;;
15878;SDS011;61999;51.514;14.614;2023-05-20T08:22:36;18.20;;;15.43;;
15878;SDS011;61999;51.514;14.614;2023-05-20T08:25:06;15.13;;;13.03;;
15878;SDS011;61999;51.514;14.614;2023-05-20T08:27:36;15.20;;;13.10;;
15878;SDS011;61999;51.514;14.614;2023-05-20T08:30:05;17.20;;;15.37;;
15878;SDS011;61999;51.514;14.614;2023-05-20T08:32:36;15.77;;;13.93;;
15878;SDS011;61999;51.514;14.614;2023-05-20T08:35:05;15.33;;;12.73;;
15878;SDS011;61999;51.514;14.614;2023-05-20T08:37:34;18.03;;;12.90;;
15878;SDS011;61999;51.514;14.614;2023-05-20T08:40:02;18.73;;;15.87;;
15878;SDS011;61999;51.514;14.614;2023-05-20T08:42:31;17.37;;;15.00;;
15878;SDS011;61999;51.514;14.614;2023-05-20T08:45:00;18.07;;;15.60;;
15878;SDS011;61999;51.514;14.614;2023-05-20T08:47:30;15.37;;;12.50;;
15878;SDS011;61999;51.514;14.614;2023-05-20T08:50:01;18.67;;;14.80;;
15878;SDS011;61999;51.514;14.614;2023-05-20T08:52:29;16.70;;;13.40;;
15878;SDS011;61999;51.514;14.614;2023-05-20T08:55:01;16.70;;;13.63;;
15878;SDS011;61999;51.514;14.614;2023-05-20T08:57:33;16.97;;;13.47;;
15878;SDS011;61999;51.514;14.614;2023-05-20T09:00:04;16.93;;;15.10;;
15878;SDS011;61999;51.514;14.614;2023-05-20T09:02:38;17.13;;;15.20;;
15878;SDS011;61999;51.514;14.614;2023-05-20T09:05:08;17.53;;;15.73;;
15878;SDS011;61999;51.514;14.614;2023-05-20T09:07:37;20.87;;;15.93;;
15878;SDS011;61999;51.514;14.614;2023-05-20T09:10:08;17.87;;;15.00;;
15878;SDS011;61999;51.514;14.614;2023-05-20T09:12:37;18.67;;;15.50;;
15878;SDS011;61999;51.514;14.614;2023-05-20T09:15:05;16.23;;;14.23;;
15878;SDS011;61999;51.514;14.614;2023-05-20T09:17:35;17.23;;;14.13;;
15878;SDS011;61999;51.514;14.614;2023-05-20T09:20:05;16.17;;;14.03;;
15878;SDS011;61999;51.514;14.614;2023-05-20T09:22:37;17.57;;;13.77;;
15878;SDS011;61999;51.514;14.614;2023-05-20T09:25:06;17.93;;;14.37;;
15878;SDS011;61999;51.514;14.614;2023-05-20T09:27:38;16.77;;;13.90;;
15878;SDS011;61999;51.514;14.614;2023-05-20T09:30:07;16.43;;;13.30;;
15878;SDS011;61999;51.514;14.614;2023-05-20T09:32:38;17.50;;;13.57;;
15878;SDS011;61999;51.514;14.614;2023-05-20T09:35:07;17.07;;;12.77;;
15878;SDS011;61999;51.514;14.614;2023-05-20T09:37:39;18.40;;;13.93;;
15878;SDS011;61999;51.514;14.614;2023-05-20T09:40:12;14.37;;;11.90;;
15878;SDS011;61999;51.514;14.614;2023-05-20T09:42:44;14.47;;;11.70;;
15878;SDS011;61999;51.514;14.614;2023-05-20T09:45:20;16.77;;;13.60;;
15878;SDS011;61999;51.514;14.614;2023-05-20T09:47:50;15.37;;;13.73;;
15878;SDS011;61999;51.514;14.614;2023-05-20T09:50:22;14.80;;;11.80;;
15878;SDS011;61999;51.514;14.614;2023-05-20T09:52:52;15.43;;;11.60;;
15878;SDS011;61999;51.514;14.614;2023-05-20T09:55:22;11.90;;;10.70;;
15878;SDS011;61999;51.514;14.614;2023-05-20T09:57:51;9.80;;;8.87;;
15878;SDS011;61999;51.514;14.614;2023-05-20T10:00:21;11.40;;;10.20;;
15878;SDS011;61999;51.514;14.614;2023-05-20T10:02:49;10.40;;;9.30;;
15878;SDS011;61999;51.514;14.614;2023-05-20T10:05:20;8.40;;;7.60;;
15878;SDS011;61999;51.514;14.614;2023-05-20T10:07:59;10.23;;;8.87;;
15878;SDS011;61999;51.514;14.614;2023-05-20T10:11:02;11.70;;;9.20;;
15878;SDS011;61999;51.514;14.614;2023-05-20T10:13:47;9.27;;;8.37;;
15878;SDS011;61999;51.514;14.614;2023-05-20T10:16:37;9.40;;;8.27;;
15878;SDS011;61999;51.514;14.614;2023-05-20T10:19:17;8.87;;;7.47;;
15878;SDS011;61999;51.514;14.614;2023-05-20T10:21:57;8.50;;;7.70;;
15878;SDS011;61999;51.514;14.614;2023-05-20T10:24:31;8.73;;;7.83;;
15878;SDS011;61999;51.514;14.614;2023-05-20T10:27:01;8.03;;;7.23;;
15878;SDS011;61999;51.514;14.614;2023-05-20T10:29:40;7.43;;;6.63;;
15878;SDS011;61999;51.514;14.614;2023-05-20T10:32:10;8.17;;;7.33;;
15878;SDS011;61999;51.514;14.614;2023-05-20T10:34:49;9.20;;;8.13;;
15878;SDS011;61999;51.514;14.614;2023-05-20T10:37:28;8.80;;;7.90;;
15878;SDS011;61999;51.514;14.614;2023-05-20T10:40:02;7.97;;;7.27;;
15878;SDS011;61999;51.514;14.614;2023-05-20T10:42:33;8.23;;;7.47;;
15878;SDS011;61999;51.514;14.614;2023-05-20T10:45:02;8.20;;;7.40;;
15878;SDS011;61999;51.514;14.614;2023-05-20T10:47:32;7.97;;;7.27;;
15878;SDS011;61999;51.514;14.614;2023-05-20T10:50:01;7.50;;;6.73;;
15878;SDS011;61999;51.514;14.614;2023-05-20T10:52:33;7.47;;;6.77;;
15878;SDS011;61999;51.514;14.614;2023-05-20T10:55:03;8.97;;;7.23;;
15878;SDS011;61999;51.514;14.614;2023-05-20T10:57:33;7.72;;;6.90;;
15878;SDS011;61999;51.514;14.614;2023-05-20T11:00:03;9.32;;;8.52;;
15878;SDS011;61999;51.514;14.614;2023-05-20T11:02:36;7.45;;;6.78;;
15878;SDS011;61999;51.514;14.614;2023-05-20T11:05:06;8.18;;;7.47;;
15878;SDS011;61999;51.514;14.614;2023-05-20T11:07:40;7.70;;;7.07;;
15878;SDS011;61999;51.514;14.614;2023-05-20T11:10:08;8.93;;;8.13;;
15878;SDS011;61999;51.514;14.614;2023-05-20T11:12:37;6.68;;;6.18;;
15878;SDS011;61999;51.514;14.614;2023-05-20T11:15:06;8.32;;;7.55;;
15878;SDS011;61999;51.514;14.614;2023-05-20T11:17:49;8.52;;;7.68;;
15878;SDS011;61999;51.514;14.614;2023-05-20T11:20:20;7.38;;;6.78;;
15878;SDS011;61999;51.514;14.614;2023-05-20T11:22:50;7.38;;;6.80;;
15878;SDS011;61999;51.514;14.614;2023-05-20T11:25:19;9.45;;;8.55;;
15878;SDS011;61999;51.514;14.614;2023-05-20T11:27:48;8.88;;;8.02;;
15878;SDS011;61999;51.514;14.614;2023-05-20T11:30:17;7.45;;;6.75;;
15878;SDS011;61999;51.514;14.614;2023-05-20T11:32:55;7.28;;;6.68;;
15878;SDS011;61999;51.514;14.614;2023-05-20T11:35:25;7.82;;;7.15;;
15878;SDS011;61999;51.514;14.614;2023-05-20T11:37:59;8.70;;;7.50;;
15878;SDS011;61999;51.514;14.614;2023-05-20T11:40:30;10.38;;;9.55;;
15878;SDS011;61999;51.514;14.614;2023-05-20T11:43:04;9.93;;;9.02;;
15878;SDS011;61999;51.514;14.614;2023-05-20T11:45:37;8.80;;;7.95;;
15878;SDS011;61999;51.514;14.614;2023-05-20T11:48:07;8.15;;;7.47;;
15878;SDS011;61999;51.514;14.614;2023-05-20T11:50:37;10.10;;;9.30;;
15878;SDS011;61999;51.514;14.614;2023-05-20T11:53:08;8.02;;;7.32;;
15878;SDS011;61999;51.514;14.614;2023-05-20T11:55:44;10.13;;;9.23;;
15878;SDS011;61999;51.514;14.614;2023-05-20T11:58:17;9.23;;;8.43;;
15878;SDS011;61999;51.514;14.614;2023-05-20T12:00:48;9.27;;;8.38;;
15878;SDS011;61999;51.514;14.614;2023-05-20T12:03:20;9.40;;;8.57;;
15878;SDS011;61999;51.514;14.614;2023-05-20T12:05:49;7.97;;;7.28;;
15878;SDS011;61999;51.514;14.614;2023-05-20T12:08:18;8.88;;;8.05;;
15878;SDS011;61999;51.514;14.614;2023-05-20T12:10:47;9.38;;;8.57;;
15878;SDS011;61999;51.514;14.614;2023-05-20T12:13:16;9.38;;;8.63;;
15878;SDS011;61999;51.514;14.614;2023-05-20T12:15:44;10.23;;;9.00;;
15878;SDS011;61999;51.514;14.614;2023-05-20T12:18:13;9.65;;;8.95;;
15878;SDS011;61999;51.514;14.614;2023-05-20T12:20:41;10.27;;;9.45;;
15878;SDS011;61999;51.514;14.614;2023-05-20T12:23:09;11.05;;;10.15;;
15878;SDS011;61999;51.514;14.614;2023-05-20T12:25:39;10.68;;;9.75;;
15878;SDS011;61999;51.514;14.614;2023-05-20T12:28:07;11.10;;;10.20;;
15878;SDS011;61999;51.514;14.614;2023-05-20T12:30:35;10.70;;;9.80;;
15878;SDS011;61999;51.514;14.614;2023-05-20T12:33:03;11.68;;;10.68;;
15878;SDS011;61999;51.514;14.614;2023-05-20T12:35:36;10.70;;;9.90;;
15878;SDS011;61999;51.514;14.614;2023-05-20T12:38:06;11.57;;;10.57;;
15878;SDS011;61999;51.514;14.614;2023-05-20T12:40:35;10.70;;;9.85;;
15878;SDS011;61999;51.514;14.614;2023-05-20T12:43:05;11.13;;;10.13;;
15878;SDS011;61999;51.514;14.614;2023-05-20T12:45:33;11.60;;;10.70;;
15878;SDS011;61999;51.514;14.614;2023-05-20T12:48:01;11.15;;;10.25;;
15878;SDS011;61999;51.514;14.614;2023-05-20T12:50:31;11.50;;;10.60;;
15878;SDS011;61999;51.514;14.614;2023-05-20T12:52:59;12.45;;;11.43;;
15878;SDS011;61999;51.514;14.614;2023-05-20T12:55:28;12.05;;;11.05;;
15878;SDS011;61999;51.514;14.614;2023-05-20T12:57:56;11.13;;;10.23;;
15878;SDS011;61999;51.514;14.614;2023-05-20T13:00:25;11.30;;;10.38;;
15878;SDS011;61999;51.514;14.614;2023-05-20T13:02:54;10.60;;;9.80;;
15878;SDS011;61999;51.514;14.614;2023-05-20T13:05:22;10.80;;;10.00;;
15878;SDS011;61999;51.514;14.614;2023-05-20T13:07:50;10.77;;;9.98;;
15878;SDS011;61999;51.514;14.614;2023-05-20T13:10:19;10.50;;;9.70;;
15878;SDS011;61999;51.514;14.614;2023-05-20T13:12:48;11.52;;;10.63;;
15878;SDS011;61999;51.514;14.614;2023-05-20T13:15:16;11.93;;;10.90;;
15878;SDS011;61999;51.514;14.614;2023-05-20T13:17:46;13.13;;;12.02;;
15878;SDS011;61999;51.514;14.614;2023-05-20T13:20:14;12.18;;;11.18;;
15878;SDS011;61999;51.514;14.614;2023-05-20T13:22:44;12.65;;;11.75;;
15878;SDS011;61999;51.514;14.614;2023-05-20T13:25:13;12.95;;;11.75;;
15878;SDS011;61999;51.514;14.614;2023-05-20T13:27:41;11.60;;;10.60;;
15878;SDS011;61999;51.514;14.614;2023-05-20T13:30:10;11.95;;;10.95;;
15878;SDS011;61999;51.514;14.614;2023-05-20T13:32:38;11.60;;;10.80;;
15878;SDS011;61999;51.514;14.614;2023-05-20T13:35:08;11.88;;;10.93;;
15878;SDS011;61999;51.514;14.614;2023-05-20T13:37:38;11.93;;;11.02;;
15878;SDS011;61999;51.514;14.614;2023-05-20T13:40:07;13.95;;;12.85;;
15878;SDS011;61999;51.514;14.614;2023-05-20T13:42:36;13.18;;;12.00;;
15878;SDS011;61999;51.514;14.614;2023-05-20T13:45:04;11.48;;;10.57;;
15878;SDS011;61999;51.514;14.614;2023-05-20T13:47:34;12.43;;;11.40;;
15878;SDS011;61999;51.514;14.614;2023-05-20T13:50:02;11.95;;;11.13;;
15878;SDS011;61999;51.514;14.614;2023-05-20T13:52:33;12.75;;;11.75;;
15878;SDS011;61999;51.514;14.614;2023-05-20T13:55:01;14.85;;;13.77;;
15878;SDS011;61999;51.514;14.614;2023-05-20T13:57:30;14.50;;;13.38;;
15878;SDS011;61999;51.514;14.614;2023-05-20T13:59:58;14.55;;;13.35;;
15878;SDS011;61999;51.514;14.614;2023-05-20T14:02:26;14.20;;;13.20;;
15878;SDS011;61999;51.514;14.614;2023-05-20T14:04:54;15.13;;;13.45;;
15878;SDS011;61999;51.514;14.614;2023-05-20T14:07:23;15.98;;;14.75;;
15878;SDS011;61999;51.514;14.614;2023-05-20T14:09:53;14.00;;;12.93;;
15878;SDS011;61999;51.514;14.614;2023-05-20T14:12:21;15.02;;;13.73;;
15878;SDS011;61999;51.514;14.614;2023-05-20T14:14:49;14.00;;;12.80;;
15878;SDS011;61999;51.514;14.614;2023-05-20T14:17:18;14.32;;;13.23;;
15878;SDS011;61999;51.514;14.614;2023-05-20T14:19:46;12.88;;;11.88;;
15878;SDS011;61999;51.514;14.614;2023-05-20T14:22:14;13.48;;;12.48;;
15878;SDS011;61999;51.514;14.614;2023-05-20T14:24:42;14.98;;;13.77;;
15878;SDS011;61999;51.514;14.614;2023-05-20T14:27:12;14.40;;;13.23;;
15878;SDS011;61999;51.514;14.614;2023-05-20T14:29:40;16.80;;;15.40;;